createdAt,value
2023-05-18T00:00:37.992Z,97211.88
2023-05-18T00:03:07.110Z,97206.81
2023-05-18T00:05:35.350Z,97214.09
2023-05-18T00:08:03.475Z,97208.94
2023-05-18T00:10:31.701Z,97202.59
2023-05-18T00:12:59.829Z,97203.59
2023-05-18T00:15:29.546Z,97198.09
2023-05-18T00:17:58.568Z,97196.38
2023-05-18T00:20:27.542Z,97194.84
2023-05-18T00:22:55.756Z,97188.88
2023-05-18T00:25:24.108Z,97186.25
2023-05-18T00:27:52.252Z,97182.56
2023-05-18T00:30:20.666Z,97176.59
2023-05-18T00:32:50.184Z,97173.25
2023-05-18T00:35:18.290Z,97171.44
2023-05-18T00:37:46.509Z,97171.44
2023-05-18T00:40:14.850Z,97170.25
2023-05-18T00:42:42.896Z,97171.09
2023-05-18T00:45:11.952Z,97166.09
2023-05-18T00:47:40.108Z,97168.53
2023-05-18T00:50:12.536Z,97163.72
2023-05-18T00:52:41.588Z,97164.28
2023-05-18T00:55:12.697Z,97157.22
2023-05-18T00:57:42.094Z,97157.59
2023-05-18T01:00:13.977Z,97164.56
2023-05-18T01:02:45.506Z,97163.31
2023-05-18T01:05:15.185Z,97156.59
2023-05-18T01:07:43.502Z,97164.03
2023-05-18T01:10:16.293Z,97159.03
2023-05-18T01:12:51.766Z,97158.78
2023-05-18T01:15:24.380Z,97158.03
2023-05-18T01:18:10.233Z,97159.31
2023-05-18T01:20:47.760Z,97163.00
2023-05-18T01:23:54.870Z,97159.97
2023-05-18T01:26:31.527Z,97164.38
2023-05-18T01:29:03.604Z,97159.59
2023-05-18T01:31:32.333Z,97170.09
2023-05-18T01:34:00.586Z,97166.47
2023-05-18T01:36:28.905Z,97160.78
2023-05-18T01:39:01.441Z,97168.56
2023-05-18T01:41:33.268Z,97172.31
2023-05-18T01:44:07.057Z,97163.75
2023-05-18T01:46:44.330Z,97160.47
2023-05-18T01:49:21.656Z,97164.94
2023-05-18T01:51:51.754Z,97168.72
2023-05-18T01:54:23.018Z,97156.88
2023-05-18T01:56:54.818Z,97161.13
2023-05-18T01:59:25.328Z,97150.56
2023-05-18T02:01:59.268Z,97157.25
2023-05-18T02:04:28.521Z,97150.38
2023-05-18T02:06:57.097Z,97150.91
2023-05-18T02:09:25.441Z,97160.31
2023-05-18T02:11:54.882Z,97159.31
2023-05-18T02:14:23.075Z,97149.38
2023-05-18T02:16:54.245Z,97141.88
2023-05-18T02:19:25.362Z,97145.66
2023-05-18T02:21:54.961Z,97147.81
2023-05-18T02:24:23.314Z,97149.09
2023-05-18T02:26:51.545Z,97145.75
2023-05-18T02:29:22.752Z,97150.09
2023-05-18T02:31:51.149Z,97140.84
2023-05-18T02:34:19.699Z,97150.00
2023-05-18T02:36:48.737Z,97143.78
2023-05-18T02:39:17.246Z,97137.53
2023-05-18T02:41:45.377Z,97135.00
2023-05-18T02:44:13.685Z,97139.16
2023-05-18T02:46:43.129Z,97136.53
2023-05-18T02:49:11.853Z,97139.97
2023-05-18T02:51:40.184Z,97139.25
2023-05-18T02:54:08.344Z,97133.28
2023-05-18T02:56:43.450Z,97128.22
2023-05-18T02:59:33.043Z,97131.53
2023-05-18T03:02:02.645Z,97136.19
2023-05-18T03:04:31.725Z,97131.09
2023-05-18T03:07:02.703Z,97137.63
2023-05-18T03:09:30.999Z,97146.19
2023-05-18T03:11:59.275Z,97143.66
2023-05-18T03:14:29.995Z,97138.16
2023-05-18T03:17:00.510Z,97134.19
2023-05-18T03:19:30.028Z,97127.75
2023-05-18T03:21:58.840Z,97124.78
2023-05-18T03:24:30.119Z,97129.50
2023-05-18T03:27:00.944Z,97136.97
2023-05-18T03:29:31.301Z,97141.84
2023-05-18T03:32:00.802Z,97136.25
2023-05-18T03:34:30.330Z,97133.81
2023-05-18T03:36:58.582Z,97137.63
2023-05-18T03:39:26.922Z,97136.69
2023-05-18T03:41:55.169Z,97136.34
2023-05-18T03:44:24.023Z,97130.25
2023-05-18T03:46:52.392Z,97141.16
2023-05-18T03:49:20.538Z,97137.78
2023-05-18T03:51:50.061Z,97145.13
2023-05-18T03:54:18.180Z,97140.03
2023-05-18T03:56:47.017Z,97134.81
2023-05-18T03:59:15.252Z,97140.41
2023-05-18T04:01:44.506Z,97144.03
2023-05-18T04:04:17.906Z,97146.41
2023-05-18T04:06:46.933Z,97144.38
2023-05-18T04:09:17.305Z,97149.34
2023-05-18T04:11:46.492Z,97152.22
2023-05-18T04:14:18.082Z,97151.59
2023-05-18T04:16:46.707Z,97156.16
2023-05-18T04:19:15.912Z,97157.84
2023-05-18T04:21:44.103Z,97165.00
2023-05-18T04:24:14.455Z,97157.31
2023-05-18T04:26:43.949Z,97163.09
2023-05-18T04:29:13.610Z,97164.28
2023-05-18T04:31:44.722Z,97167.88
2023-05-18T04:34:14.285Z,97172.50
2023-05-18T04:36:43.857Z,97175.13
2023-05-18T04:39:13.171Z,97177.41
2023-05-18T04:41:42.176Z,97182.66
2023-05-18T04:44:14.135Z,97185.09
2023-05-18T04:46:42.665Z,97181.09
2023-05-18T04:49:11.669Z,97173.16
2023-05-18T04:51:42.016Z,97179.03
2023-05-18T04:54:10.369Z,97187.88
2023-05-18T04:56:38.638Z,97185.50
2023-05-18T04:59:09.339Z,97185.69
2023-05-18T05:01:38.806Z,97191.22
2023-05-18T05:04:06.946Z,97186.16
2023-05-18T05:06:35.127Z,97188.78
2023-05-18T05:09:04.606Z,97187.84
2023-05-18T05:11:32.774Z,97189.56
2023-05-18T05:14:02.307Z,97187.34
2023-05-18T05:16:30.643Z,97186.53
2023-05-18T05:19:00.249Z,97189.44
2023-05-18T05:21:28.925Z,97183.19
2023-05-18T05:23:57.357Z,97188.69
2023-05-18T05:26:27.427Z,97188.91
2023-05-18T05:28:55.525Z,97190.81
2023-05-18T05:31:23.686Z,97179.63
2023-05-18T05:33:52.761Z,97192.63
2023-05-18T05:36:22.664Z,97190.06
2023-05-18T05:38:50.931Z,97187.25
2023-05-18T05:41:19.063Z,97181.84
2023-05-18T05:43:47.187Z,97187.44
2023-05-18T05:46:15.765Z,97190.25
2023-05-18T05:48:44.372Z,97184.00
2023-05-18T05:51:12.550Z,97184.06
2023-05-18T05:53:43.520Z,97186.03
2023-05-18T05:56:11.662Z,97190.69
2023-05-18T05:58:43.045Z,97195.13
2023-05-18T06:01:11.662Z,97187.13
2023-05-18T06:03:40.356Z,97189.16
2023-05-18T06:06:09.020Z,97192.44
2023-05-18T06:08:37.345Z,97192.38
2023-05-18T06:11:07.781Z,97201.66
2023-05-18T06:13:37.552Z,97203.84
2023-05-18T06:16:06.734Z,97196.56
2023-05-18T06:18:34.965Z,97207.75
2023-05-18T06:21:05.860Z,97193.75
2023-05-18T06:23:34.478Z,97193.13
2023-05-18T06:26:03.044Z,97198.19
2023-05-18T06:28:57.683Z,97204.13
2023-05-18T06:31:46.051Z,97191.94
2023-05-18T06:34:33.055Z,97197.38
2023-05-18T06:37:02.229Z,97191.66
2023-05-18T06:39:30.433Z,97195.19
2023-05-18T06:41:58.802Z,97195.94
2023-05-18T06:44:35.198Z,97199.00
2023-05-18T06:47:09.180Z,97195.75
2023-05-18T06:49:37.680Z,97191.63
2023-05-18T06:52:06.766Z,97190.44
2023-05-18T06:54:35.281Z,97194.88
2023-05-18T06:57:03.707Z,97191.59
2023-05-18T06:59:34.630Z,97206.63
2023-05-18T07:02:03.962Z,97199.00
2023-05-18T07:04:32.932Z,97192.09
2023-05-18T07:07:01.533Z,97191.97
2023-05-18T07:09:29.780Z,97197.13
2023-05-18T07:11:57.866Z,97200.72
2023-05-18T07:14:26.052Z,97200.78
2023-05-18T07:16:55.676Z,97208.50
2023-05-18T07:19:23.965Z,97208.16
2023-05-18T07:21:52.738Z,97213.78
2023-05-18T07:24:21.024Z,97208.59
2023-05-18T07:26:49.413Z,97206.25
2023-05-18T07:29:17.834Z,97210.06
2023-05-18T07:31:46.611Z,97208.28
2023-05-18T07:34:17.161Z,97204.69
2023-05-18T07:36:45.604Z,97211.72
2023-05-18T07:39:24.344Z,97205.88
2023-05-18T07:41:52.679Z,97217.09
2023-05-18T07:44:21.037Z,97206.59
2023-05-18T07:46:49.178Z,97205.69
2023-05-18T07:49:18.860Z,97204.50
2023-05-18T07:51:47.228Z,97203.47
2023-05-18T07:54:15.369Z,97199.22
2023-05-18T07:56:44.273Z,97199.22
2023-05-18T07:59:12.683Z,97194.28
2023-05-18T08:01:41.489Z,97190.03
2023-05-18T08:04:15.060Z,97190.44
2023-05-18T08:06:44.796Z,97191.09
2023-05-18T08:09:17.052Z,97187.22
2023-05-18T08:14:42.472Z,97191.75
2023-05-18T08:17:11.137Z,97185.88
2023-05-18T08:19:41.834Z,97190.13
2023-05-18T08:22:11.787Z,97187.69
2023-05-18T08:24:39.948Z,97190.94
2023-05-18T08:27:09.885Z,97187.06
2023-05-18T08:29:38.097Z,97185.88
2023-05-18T08:32:08.085Z,97186.09
2023-05-18T08:34:36.770Z,97175.94
2023-05-18T08:37:05.330Z,97176.72
2023-05-18T08:39:35.068Z,97173.06
2023-05-18T08:42:08.712Z,97176.91
2023-05-18T08:44:46.531Z,97174.69
2023-05-18T08:47:17.594Z,97170.19
2023-05-18T08:49:50.478Z,97166.50
2023-05-18T08:52:23.162Z,97166.53
2023-05-18T08:54:54.056Z,97163.25
2023-05-18T08:57:24.489Z,97158.56
2023-05-18T08:59:55.420Z,97164.06
2023-05-18T09:02:25.176Z,97161.56
2023-05-18T09:04:54.642Z,97145.25
2023-05-18T09:07:24.433Z,97143.94
2023-05-18T09:09:55.686Z,97147.00
2023-05-18T09:12:24.690Z,97154.88
2023-05-18T09:14:53.985Z,97155.16
2023-05-18T09:17:24.691Z,97148.75
2023-05-18T09:19:53.573Z,97148.06
2023-05-18T09:22:21.889Z,97149.66
2023-05-18T09:24:51.347Z,97155.06
2023-05-18T09:27:21.636Z,97154.69
2023-05-18T09:29:58.092Z,97149.19
2023-05-18T09:32:27.590Z,97148.47
2023-05-18T09:34:56.093Z,97154.94
2023-05-18T09:37:24.487Z,97154.56
2023-05-18T09:40:01.359Z,97156.09
2023-05-18T09:42:37.808Z,97159.50
2023-05-18T09:45:16.905Z,97151.56
2023-05-18T09:47:45.132Z,97150.25
2023-05-18T09:50:21.005Z,97144.13
2023-05-18T09:52:50.866Z,97148.19
2023-05-18T09:55:48.238Z,97150.25
2023-05-18T09:58:42.206Z,97147.25
2023-05-18T10:01:10.374Z,97150.25
2023-05-18T10:03:39.528Z,97148.03
2023-05-18T10:06:13.248Z,97148.88
2023-05-18T10:08:45.527Z,97135.63
2023-05-18T10:11:38.535Z,97129.53
2023-05-18T10:14:14.495Z,97123.97
2023-05-18T10:16:43.282Z,97124.38
2023-05-18T10:19:14.689Z,97127.50
2023-05-18T10:21:43.372Z,97115.44
2023-05-18T10:24:14.502Z,97107.66
2023-05-18T10:26:44.945Z,97113.47
2023-05-18T10:29:14.863Z,97110.44
2023-05-18T10:31:43.609Z,97112.03
2023-05-18T10:34:12.372Z,97109.88
2023-05-18T10:36:41.143Z,97114.25
2023-05-18T10:39:11.263Z,97110.44
2023-05-18T10:41:40.957Z,97118.66
2023-05-18T10:44:09.182Z,97103.34
2023-05-18T10:46:39.313Z,97108.50
2023-05-18T10:49:14.717Z,97103.69
2023-05-18T10:51:44.660Z,97103.66
2023-05-18T10:54:14.617Z,97098.22
2023-05-18T10:56:45.192Z,97108.63
2023-05-18T10:59:18.433Z,97111.16
2023-05-18T11:01:50.687Z,97106.88
2023-05-18T11:04:26.941Z,97105.94
2023-05-18T11:06:58.936Z,97108.81
2023-05-18T11:09:29.760Z,97103.88
2023-05-18T11:12:02.467Z,97097.28
2023-05-18T11:14:32.840Z,97103.28
2023-05-18T11:17:23.368Z,97098.13
2023-05-18T11:20:17.173Z,97094.44
2023-05-18T11:22:51.397Z,97095.09
2023-05-18T11:25:40.918Z,97094.41
2023-05-18T11:28:14.714Z,97099.59
2023-05-18T11:30:49.944Z,97101.94
2023-05-18T11:33:26.080Z,97090.41
2023-05-18T11:36:04.396Z,97091.09
2023-05-18T11:38:54.802Z,97090.28
2023-05-18T11:41:32.403Z,97087.63
2023-05-18T11:44:20.850Z,97090.84
2023-05-18T11:47:03.544Z,97088.78
2023-05-18T11:49:37.559Z,97088.84
2023-05-18T11:52:08.900Z,97089.47
2023-05-18T11:54:46.885Z,97079.41
2023-05-18T11:57:18.681Z,97080.47
2023-05-18T11:59:48.892Z,97079.25
2023-05-18T12:02:23.132Z,97087.59
2023-05-18T12:04:56.405Z,97093.69
2023-05-18T12:07:26.149Z,97087.91
2023-05-18T12:09:58.349Z,97071.69
2023-05-18T12:12:27.291Z,97073.88
2023-05-18T12:14:59.021Z,97086.31
2023-05-18T12:17:40.300Z,97069.31
2023-05-18T12:20:13.818Z,97067.59
2023-05-18T12:22:43.065Z,97068.16
2023-05-18T12:25:12.722Z,97071.84
2023-05-18T12:27:41.945Z,97068.25
2023-05-18T12:30:13.822Z,97068.75
2023-05-18T12:32:47.089Z,97073.47
2023-05-18T12:35:16.741Z,97067.19
2023-05-18T12:37:46.289Z,97072.06
2023-05-18T12:40:16.917Z,97069.41
2023-05-18T12:42:53.795Z,97057.38
2023-05-18T12:45:26.945Z,97051.09
2023-05-18T12:47:56.310Z,97059.44
2023-05-18T12:50:27.318Z,97052.97
2023-05-18T12:52:57.446Z,97058.66
2023-05-18T12:55:26.652Z,97056.19
2023-05-18T12:58:07.894Z,97055.13
2023-05-18T13:00:37.823Z,97042.72
2023-05-18T13:03:14.492Z,97036.38
2023-05-18T13:05:46.453Z,97044.25
2023-05-18T13:08:18.030Z,97049.56
2023-05-18T13:10:49.312Z,97045.16
2023-05-18T13:13:23.764Z,97047.44
2023-05-18T13:15:52.556Z,97045.50
2023-05-18T13:18:20.794Z,97051.63
2023-05-18T13:20:53.590Z,97043.16
2023-05-18T13:23:24.000Z,97043.81
2023-05-18T13:25:52.365Z,97048.66
2023-05-18T13:28:22.549Z,97044.88
2023-05-18T13:30:51.511Z,97042.94
2023-05-18T13:33:19.718Z,97047.91
2023-05-18T13:35:50.985Z,97043.09
2023-05-18T13:38:19.162Z,97041.41
2023-05-18T13:40:47.416Z,97041.84
2023-05-18T13:43:15.639Z,97031.88
2023-05-18T13:45:44.424Z,97031.56
2023-05-18T13:48:12.819Z,97034.91
2023-05-18T13:50:41.138Z,97024.88
2023-05-18T13:53:10.750Z,97018.81
2023-05-18T13:55:39.152Z,97018.50
2023-05-18T13:58:07.573Z,97025.13
2023-05-18T14:00:36.493Z,97021.31
2023-05-18T14:03:05.210Z,97018.44
2023-05-18T14:05:33.685Z,97006.84
2023-05-18T14:08:01.900Z,97012.56
2023-05-18T14:10:31.961Z,97015.88
2023-05-18T14:13:00.251Z,97014.00
2023-05-18T14:15:28.344Z,97013.69
2023-05-18T14:17:56.640Z,97007.38
2023-05-18T14:20:24.873Z,97004.00
2023-05-18T14:22:53.152Z,97006.50
2023-05-18T14:25:21.234Z,97004.97
2023-05-18T14:27:50.959Z,97002.94
2023-05-18T14:30:19.107Z,96999.34
2023-05-18T14:32:47.366Z,97001.56
2023-05-18T14:35:15.706Z,96998.69
2023-05-18T14:37:43.804Z,96993.47
2023-05-18T14:40:12.785Z,96995.34
2023-05-18T14:42:40.972Z,96988.44
2023-05-18T14:45:11.816Z,96986.19
2023-05-18T14:47:39.960Z,96988.19
2023-05-18T14:50:09.487Z,96988.22
2023-05-18T14:52:37.649Z,96986.88
2023-05-18T14:55:06.657Z,96994.13
2023-05-18T14:57:37.857Z,96992.72
2023-05-18T15:00:07.346Z,96993.66
2023-05-18T15:02:37.068Z,96993.66
2023-05-18T15:05:06.325Z,96995.13
2023-05-18T15:07:34.667Z,96995.66
2023-05-18T15:10:02.845Z,96991.84
2023-05-18T15:12:31.187Z,96996.31
2023-05-18T15:14:59.315Z,96991.00
2023-05-18T15:17:27.575Z,96994.50
2023-05-18T15:19:57.236Z,96991.75
2023-05-18T15:22:25.439Z,96984.94
2023-05-18T15:24:53.804Z,96993.28
2023-05-18T15:27:22.071Z,96984.31
2023-05-18T15:29:50.254Z,96976.47
2023-05-18T15:32:20.885Z,96977.16
2023-05-18T15:34:49.014Z,96976.88
2023-05-18T15:37:18.526Z,96978.38
2023-05-18T15:39:46.653Z,96976.28
2023-05-18T15:42:15.020Z,96977.63
2023-05-18T15:44:43.218Z,96989.25
2023-05-18T15:47:11.505Z,96989.25
2023-05-18T15:49:39.667Z,96986.06
2023-05-18T15:52:08.960Z,96985.53
2023-05-18T15:54:38.414Z,96984.88
2023-05-18T15:57:07.437Z,96982.72
2023-05-18T15:59:35.638Z,96984.94
2023-05-18T16:02:03.745Z,96980.28
2023-05-18T16:04:31.866Z,96983.88
2023-05-18T16:06:59.996Z,96981.56
2023-05-18T16:09:28.478Z,96983.41
2023-05-18T16:11:58.177Z,96974.22
2023-05-18T16:14:31.311Z,96975.66
2023-05-18T16:16:59.456Z,96970.97
2023-05-18T16:19:27.797Z,96977.25
2023-05-18T16:21:56.798Z,96976.28
2023-05-18T16:24:24.878Z,96979.38
2023-05-18T16:27:01.303Z,96979.09
2023-05-18T16:29:29.571Z,96977.72
2023-05-18T16:31:57.751Z,96984.25
2023-05-18T16:34:25.915Z,96984.09
2023-05-18T16:36:54.080Z,96980.59
2023-05-18T16:39:22.193Z,96985.25
2023-05-18T16:41:50.361Z,96981.44
2023-05-18T16:44:19.822Z,96988.09
2023-05-18T16:46:48.112Z,96990.91
2023-05-18T16:49:16.322Z,96994.06
2023-05-18T16:51:44.569Z,96989.84
2023-05-18T16:54:17.542Z,96987.28
2023-05-18T16:56:46.704Z,96992.94
2023-05-18T16:59:15.393Z,96993.97
2023-05-18T17:01:44.881Z,96993.13
2023-05-18T17:04:13.613Z,97005.94
2023-05-18T17:06:42.056Z,97001.22
2023-05-18T17:09:10.182Z,96999.72
2023-05-18T17:11:38.313Z,97006.97
2023-05-18T17:14:30.350Z,97010.13
2023-05-18T17:16:59.814Z,97000.03
2023-05-18T17:19:28.141Z,97005.19
2023-05-18T17:21:57.128Z,97004.66
2023-05-18T17:24:25.275Z,97006.59
2023-05-18T17:26:53.648Z,97007.19
2023-05-18T17:29:21.973Z,97001.63
2023-05-18T17:31:50.467Z,96998.75
2023-05-18T17:34:20.172Z,97007.31
2023-05-18T17:36:49.742Z,97007.41
2023-05-18T17:39:17.983Z,97000.78
2023-05-18T17:41:46.137Z,97004.53
2023-05-18T17:44:16.237Z,97009.75
2023-05-18T17:46:46.147Z,97013.91
2023-05-18T17:49:15.061Z,97008.25
2023-05-18T17:51:44.706Z,97011.03
2023-05-18T17:54:13.368Z,97012.28
2023-05-18T17:56:41.542Z,97005.59
2023-05-18T17:59:09.753Z,97010.22
2023-05-18T18:01:38.058Z,97004.19
2023-05-18T18:04:07.095Z,97003.28
2023-05-18T18:06:35.638Z,97011.50
2023-05-18T18:09:05.948Z,97009.28
2023-05-18T18:11:34.129Z,97007.38
2023-05-18T18:14:03.171Z,97014.50
2023-05-18T18:16:31.470Z,97000.28
2023-05-18T18:18:59.604Z,97008.16
2023-05-18T18:21:27.688Z,97013.47
2023-05-18T18:23:55.976Z,97009.28
2023-05-18T18:26:32.777Z,97008.50
2023-05-18T18:29:00.822Z,97015.66
2023-05-18T18:31:53.676Z,97016.03
2023-05-18T18:34:21.827Z,97002.84
2023-05-18T18:36:49.940Z,97012.66
2023-05-18T18:39:19.150Z,97013.47
2023-05-18T18:41:48.664Z,97016.03
2023-05-18T18:44:19.057Z,97017.97
2023-05-18T18:46:47.794Z,97023.03
2023-05-18T18:49:17.078Z,97017.63
2023-05-18T18:52:13.029Z,97020.19
2023-05-18T18:54:42.019Z,97028.16
2023-05-18T18:57:12.077Z,97022.34
2023-05-18T18:59:40.426Z,97023.75
2023-05-18T19:02:09.331Z,97027.78
2023-05-18T19:04:37.509Z,97024.69
2023-05-18T19:07:06.066Z,97026.06
2023-05-18T19:09:36.091Z,97030.31
2023-05-18T19:12:04.681Z,97038.66
2023-05-18T19:14:34.129Z,97044.28
2023-05-18T19:17:02.558Z,97046.41
2023-05-18T19:19:33.096Z,97044.09
2023-05-18T19:22:01.466Z,97050.69
2023-05-18T19:24:29.651Z,97060.50
2023-05-18T19:26:57.769Z,97062.69
2023-05-18T19:29:25.893Z,97064.38
2023-05-18T19:31:57.213Z,97060.25
2023-05-18T19:34:25.780Z,97059.34
2023-05-18T19:36:54.055Z,97057.34
2023-05-18T19:39:22.134Z,97057.00
2023-05-18T19:41:50.201Z,97058.50
2023-05-18T19:44:18.293Z,97061.97
2023-05-18T19:46:46.544Z,97068.44
2023-05-18T19:49:16.078Z,97062.91
2023-05-18T19:51:44.210Z,97068.78
2023-05-18T19:54:12.984Z,97074.88
2023-05-18T19:56:42.097Z,97069.72
2023-05-18T19:59:10.139Z,97073.53
2023-05-18T20:01:38.287Z,97086.22
2023-05-18T20:04:06.678Z,97084.25
2023-05-18T20:06:36.791Z,97089.69
2023-05-18T20:09:05.153Z,97082.41
2023-05-18T20:11:33.414Z,97087.69
2023-05-18T20:14:02.165Z,97089.66
2023-05-18T20:16:33.735Z,97093.34
2023-05-18T20:19:03.353Z,97094.41
2023-05-18T20:21:31.811Z,97089.19
2023-05-18T20:24:01.430Z,97095.06
2023-05-18T20:26:31.962Z,97087.78
2023-05-18T20:29:00.374Z,97095.84
2023-05-18T20:31:28.663Z,97090.19
2023-05-18T20:33:58.051Z,97088.91
2023-05-18T20:36:26.678Z,97094.78
2023-05-18T20:38:55.080Z,97091.84
2023-05-18T20:41:25.862Z,97101.06
2023-05-18T20:43:54.225Z,97089.16
2023-05-18T20:46:24.974Z,97092.66
2023-05-18T20:48:55.262Z,97088.06
2023-05-18T20:51:24.692Z,97085.03
2023-05-18T20:53:53.176Z,97092.84
2023-05-18T20:56:21.913Z,97090.06
2023-05-18T20:58:51.376Z,97083.81
2023-05-18T21:01:21.028Z,97092.44
2023-05-18T21:03:49.497Z,97086.19
2023-05-18T21:06:17.867Z,97094.81
2023-05-18T21:08:46.233Z,97093.03
2023-05-18T21:11:14.351Z,97089.44
2023-05-18T21:13:42.404Z,97095.41
2023-05-18T21:16:11.943Z,97090.56
2023-05-18T21:18:40.138Z,97094.06
2023-05-18T21:21:08.348Z,97090.25
2023-05-18T21:23:36.530Z,97090.69
2023-05-18T21:26:04.871Z,97090.94
2023-05-18T21:28:33.111Z,97087.88
2023-05-18T21:31:01.262Z,97088.19
2023-05-18T21:33:30.741Z,97093.03
2023-05-18T21:35:59.588Z,97084.06
2023-05-18T21:38:27.634Z,97091.56
2023-05-18T21:40:56.938Z,97091.88
2023-05-18T21:43:25.460Z,97094.16
2023-05-18T21:45:53.605Z,97092.97
2023-05-18T21:48:21.905Z,97089.50
2023-05-18T21:50:54.067Z,97090.91
2023-05-18T21:53:27.566Z,97083.38
2023-05-18T21:55:55.897Z,97090.81
2023-05-18T21:58:24.570Z,97087.53
2023-05-18T22:01:17.124Z,97090.81
2023-05-18T22:03:45.420Z,97094.16
2023-05-18T22:07:04.632Z,97089.50
2023-05-18T22:09:32.719Z,97094.44
2023-05-18T22:12:01.139Z,97094.22
2023-05-18T22:14:30.940Z,97100.28
2023-05-18T22:16:59.178Z,97096.84
2023-05-18T22:19:27.390Z,97097.66
2023-05-18T22:21:55.657Z,97094.03
2023-05-18T22:24:25.098Z,97091.22
2023-05-18T22:26:53.250Z,97091.22
2023-05-18T22:29:21.424Z,97083.50
2023-05-18T22:31:49.568Z,97088.81
2023-05-18T22:34:17.636Z,97094.91
2023-05-18T22:36:45.742Z,97092.28
2023-05-18T22:39:20.902Z,97095.72
2023-05-18T22:41:50.362Z,97092.84
2023-05-18T22:44:44.021Z,97092.06
2023-05-18T22:47:13.403Z,97084.69
2023-05-18T22:49:41.503Z,97090.16
2023-05-18T22:52:16.431Z,97078.41
2023-05-18T22:54:44.641Z,97078.16
2023-05-18T22:57:19.140Z,97080.00
2023-05-18T22:59:47.633Z,97078.41
2023-05-18T23:02:18.149Z,97077.94
2023-05-18T23:04:46.465Z,97073.91
2023-05-18T23:07:14.672Z,97085.88
2023-05-18T23:09:43.052Z,97078.63
2023-05-18T23:12:12.716Z,97072.94
2023-05-18T23:14:41.236Z,97079.25
2023-05-18T23:17:09.529Z,97072.13
2023-05-18T23:19:38.527Z,97069.91
2023-05-18T23:22:07.066Z,97081.75
2023-05-18T23:24:35.125Z,97071.94
2023-05-18T23:27:03.207Z,97075.84
2023-05-18T23:29:32.603Z,97070.97
2023-05-18T23:32:00.729Z,97069.38
2023-05-18T23:34:29.821Z,97065.25
2023-05-18T23:37:02.780Z,97065.94
2023-05-18T23:39:31.457Z,97061.44
2023-05-18T23:42:01.667Z,97064.47
2023-05-18T23:44:32.168Z,97066.88
2023-05-18T23:47:01.251Z,97064.47
2023-05-18T23:49:30.227Z,97061.59
2023-05-18T23:52:03.204Z,97061.00
2023-05-18T23:54:31.846Z,97060.84
2023-05-18T23:57:00.722Z,97053.91
2023-05-18T23:59:29.565Z,97052.09
